createdAt,value
2022-11-06T00:00:30.953Z,3.80
2022-11-06T00:02:59.949Z,4.07
2022-11-06T00:05:45.867Z,3.60
2022-11-06T00:08:16.148Z,3.83
2022-11-06T00:10:44.151Z,3.57
2022-11-06T00:13:12.052Z,3.47
2022-11-06T00:15:39.945Z,3.33
2022-11-06T00:18:08.050Z,3.13
2022-11-06T00:20:35.949Z,3.20
2022-11-06T00:23:03.847Z,3.13
2022-11-06T00:25:33.142Z,3.57
2022-11-06T00:28:01.013Z,2.83
2022-11-06T00:30:28.857Z,3.03
2022-11-06T00:32:56.698Z,3.90
2022-11-06T00:35:24.738Z,3.93
2022-11-06T00:37:52.621Z,3.70
2022-11-06T00:40:20.533Z,3.47
2022-11-06T00:42:54.032Z,4.10
2022-11-06T00:45:21.863Z,3.60
2022-11-06T00:47:49.758Z,3.73
2022-11-06T00:50:18.450Z,3.60
2022-11-06T00:52:46.565Z,3.50
2022-11-06T00:55:14.430Z,3.87
2022-11-06T00:57:42.346Z,3.90
2022-11-06T01:00:13.189Z,3.77
2022-11-06T01:02:41.198Z,3.73
2022-11-06T01:05:09.403Z,3.87
2022-11-06T01:07:37.230Z,3.70
2022-11-06T01:10:05.766Z,3.10
2022-11-06T01:12:34.545Z,3.00
2022-11-06T01:15:02.423Z,3.00
2022-11-06T01:17:31.716Z,2.87
2022-11-06T01:19:59.577Z,3.73
2022-11-06T01:22:27.410Z,3.30
2022-11-06T01:24:55.311Z,3.33
2022-11-06T01:27:27.160Z,2.80
2022-11-06T01:29:55.689Z,3.13
2022-11-06T01:32:23.820Z,3.10
2022-11-06T01:34:53.040Z,3.57
2022-11-06T01:37:20.898Z,3.37
2022-11-06T01:39:50.956Z,3.20
2022-11-06T01:42:21.914Z,3.20
2022-11-06T01:45:23.120Z,3.13
2022-11-06T01:47:51.362Z,2.60
2022-11-06T01:50:21.076Z,2.50
2022-11-06T01:52:50.789Z,2.70
2022-11-06T01:55:23.976Z,2.50
2022-11-06T01:57:52.565Z,2.27
2022-11-06T02:00:21.104Z,2.50
2022-11-06T02:02:49.666Z,2.30
2022-11-06T02:05:18.024Z,2.13
2022-11-06T02:07:47.626Z,2.00
2022-11-06T02:10:15.829Z,2.30
2022-11-06T02:12:54.277Z,2.10
2022-11-06T02:15:31.973Z,2.40
2022-11-06T02:18:15.171Z,1.97
2022-11-06T02:20:55.058Z,1.93
2022-11-06T02:23:57.467Z,2.07
2022-11-06T02:26:57.541Z,2.07
2022-11-06T02:29:32.776Z,1.53
2022-11-06T02:32:04.602Z,2.27
2022-11-06T02:34:32.870Z,2.17
2022-11-06T02:37:05.161Z,1.93
2022-11-06T02:39:37.337Z,1.87
2022-11-06T02:42:09.357Z,2.00
2022-11-06T02:44:39.747Z,2.10
2022-11-06T02:47:10.993Z,2.60
2022-11-06T02:49:41.346Z,2.00
2022-11-06T02:52:13.801Z,2.20
2022-11-06T02:54:46.917Z,2.40
2022-11-06T02:57:20.070Z,2.30
2022-11-06T02:59:56.135Z,2.10
2022-11-06T03:02:28.920Z,2.20
2022-11-06T03:05:03.486Z,1.80
2022-11-06T03:07:37.467Z,1.87
2022-11-06T03:10:07.136Z,1.93
2022-11-06T03:12:45.129Z,1.87
2022-11-06T03:15:19.604Z,2.23
2022-11-06T03:17:51.072Z,1.90
2022-11-06T03:20:23.533Z,2.40
2022-11-06T03:22:58.230Z,2.10
2022-11-06T03:25:30.428Z,2.33
2022-11-06T03:28:06.020Z,2.17
2022-11-06T03:30:37.182Z,1.90
2022-11-06T03:33:14.308Z,2.37
2022-11-06T03:35:46.481Z,2.17
2022-11-06T03:38:19.608Z,2.20
2022-11-06T03:40:51.382Z,2.07
2022-11-06T03:43:24.960Z,1.83
2022-11-06T03:45:54.919Z,1.97
2022-11-06T03:48:30.888Z,1.80
2022-11-06T03:51:03.642Z,1.77
2022-11-06T03:53:35.709Z,1.93
2022-11-06T03:56:07.326Z,1.67
2022-11-06T03:58:40.013Z,2.03
2022-11-06T04:01:12.995Z,1.80
2022-11-06T04:03:45.438Z,2.10
2022-11-06T04:06:18.515Z,1.80
2022-11-06T04:09:05.371Z,1.80
2022-11-06T04:11:53.826Z,2.10
2022-11-06T04:14:27.153Z,1.93
2022-11-06T04:17:00.293Z,1.80
2022-11-06T04:19:28.312Z,1.90
2022-11-06T04:22:26.916Z,2.23
2022-11-06T04:25:22.333Z,1.60
2022-11-06T04:28:03.372Z,1.83
2022-11-06T04:30:40.101Z,2.30
2022-11-06T04:33:12.857Z,1.90
2022-11-06T04:35:52.736Z,1.93
2022-11-06T04:38:27.915Z,1.50
2022-11-06T04:41:03.772Z,2.00
2022-11-06T04:43:41.037Z,1.47
2022-11-06T04:46:14.337Z,1.63
2022-11-06T04:48:42.855Z,1.90
2022-11-06T04:51:12.505Z,1.30
2022-11-06T04:53:41.611Z,1.70
2022-11-06T04:56:12.384Z,1.50
2022-11-06T04:58:40.412Z,1.60
2022-11-06T05:01:08.310Z,1.60
2022-11-06T05:03:38.313Z,1.97
2022-11-06T05:06:06.774Z,1.60
2022-11-06T05:08:34.666Z,1.30
2022-11-06T05:11:02.577Z,1.90
2022-11-06T05:13:30.469Z,1.60
2022-11-06T05:15:59.220Z,1.70
2022-11-06T05:18:28.373Z,1.73
2022-11-06T05:21:14.516Z,1.43
2022-11-06T05:23:44.480Z,1.53
2022-11-06T05:26:12.336Z,1.40
2022-11-06T05:28:40.521Z,2.03
2022-11-06T05:31:08.557Z,1.30
2022-11-06T05:33:36.397Z,2.00
2022-11-06T05:36:06.861Z,1.50
2022-11-06T05:38:34.971Z,1.60
2022-11-06T05:41:02.985Z,1.80
2022-11-06T05:43:30.804Z,1.77
2022-11-06T05:46:00.444Z,1.53
2022-11-06T05:48:28.416Z,1.53
2022-11-06T05:51:01.654Z,1.60
2022-11-06T05:53:31.250Z,1.73
2022-11-06T05:55:59.130Z,2.00
2022-11-06T05:58:27.268Z,1.60
2022-11-06T06:00:56.270Z,1.90
2022-11-06T06:03:24.850Z,1.37
2022-11-06T06:05:54.221Z,1.50
2022-11-06T06:08:22.462Z,1.30
2022-11-06T06:10:51.648Z,1.50
2022-11-06T06:13:19.616Z,1.60
2022-11-06T06:15:47.447Z,1.47
2022-11-06T06:18:15.531Z,1.30
2022-11-06T06:20:43.569Z,1.60
2022-11-06T06:23:12.001Z,2.07
2022-11-06T06:25:39.841Z,1.70
2022-11-06T06:28:09.083Z,1.47
2022-11-06T06:30:36.931Z,1.97
2022-11-06T06:33:06.317Z,1.47
2022-11-06T06:35:34.741Z,2.33
2022-11-06T06:38:02.743Z,1.60
2022-11-06T06:40:30.950Z,1.43
2022-11-06T06:42:59.632Z,1.40
2022-11-06T06:45:29.887Z,1.37
2022-11-06T06:48:04.646Z,1.50
2022-11-06T06:50:32.948Z,1.67
2022-11-06T06:53:01.194Z,1.23
2022-11-06T06:55:29.545Z,1.47
2022-11-06T06:57:58.677Z,1.40
2022-11-06T07:00:28.685Z,1.57
2022-11-06T07:02:56.593Z,1.83
2022-11-06T07:05:26.444Z,1.60
2022-11-06T07:07:54.387Z,1.43
2022-11-06T07:10:22.237Z,1.87
2022-11-06T07:12:50.288Z,1.90
2022-11-06T07:15:18.326Z,1.53
2022-11-06T07:17:47.688Z,1.90
2022-11-06T07:20:15.612Z,1.50
2022-11-06T07:22:43.525Z,1.80
2022-11-06T07:25:12.071Z,1.57
2022-11-06T07:27:41.330Z,1.47
2022-11-06T07:30:12.546Z,1.37
2022-11-06T07:32:40.391Z,1.83
2022-11-06T07:35:10.860Z,1.83
2022-11-06T07:37:40.722Z,1.90
2022-11-06T07:40:10.967Z,1.53
2022-11-06T07:42:43.303Z,1.93
2022-11-06T07:45:11.905Z,1.83
2022-11-06T07:47:39.733Z,1.60
2022-11-06T07:50:09.570Z,1.93
2022-11-06T07:52:37.475Z,1.80
2022-11-06T07:55:06.302Z,1.80
2022-11-06T07:57:37.257Z,1.80
2022-11-06T08:00:06.281Z,1.60
2022-11-06T08:02:34.167Z,1.73
2022-11-06T08:05:02.148Z,1.70
2022-11-06T08:07:31.390Z,1.33
2022-11-06T08:09:59.266Z,1.73
2022-11-06T08:12:27.405Z,2.00
2022-11-06T08:14:55.223Z,1.87
2022-11-06T08:17:23.035Z,1.93
2022-11-06T08:19:50.853Z,2.03
2022-11-06T08:22:19.149Z,1.77
2022-11-06T08:24:48.317Z,1.83
2022-11-06T08:27:16.275Z,1.80
2022-11-06T08:29:44.116Z,1.60
2022-11-06T08:32:11.958Z,2.13
2022-11-06T08:34:39.812Z,1.90
2022-11-06T08:37:07.630Z,1.93
2022-11-06T08:39:35.459Z,1.90
2022-11-06T08:42:05.111Z,2.30
2022-11-06T08:44:32.896Z,2.03
2022-11-06T08:47:00.736Z,1.73
2022-11-06T08:49:28.592Z,1.83
2022-11-06T08:51:56.442Z,2.10
2022-11-06T08:54:26.534Z,1.90
2022-11-06T08:56:54.374Z,2.00
2022-11-06T08:59:23.558Z,1.93
2022-11-06T09:01:51.509Z,2.33
2022-11-06T09:04:19.552Z,2.10
2022-11-06T09:06:47.412Z,2.63
2022-11-06T09:09:15.329Z,2.10
2022-11-06T09:11:43.189Z,2.60
2022-11-06T09:14:11.191Z,1.73
2022-11-06T09:16:40.423Z,1.93
2022-11-06T09:19:08.357Z,2.30
2022-11-06T09:21:36.712Z,1.90
2022-11-06T09:24:05.102Z,1.93
2022-11-06T09:26:33.079Z,2.20
2022-11-06T09:29:00.916Z,2.37
2022-11-06T09:31:28.791Z,3.97
2022-11-06T09:33:58.038Z,11.77
2022-11-06T09:36:25.874Z,6.43
2022-11-06T09:38:53.688Z,2.20
2022-11-06T09:41:26.163Z,1.90
2022-11-06T09:44:10.495Z,2.43
2022-11-06T09:46:43.580Z,2.27
2022-11-06T09:49:20.312Z,2.20
2022-11-06T09:51:53.704Z,2.07
2022-11-06T09:54:26.792Z,2.30
2022-11-06T09:57:02.033Z,2.23
2022-11-06T09:59:32.819Z,2.37
2022-11-06T10:02:01.518Z,2.17
2022-11-06T10:04:41.796Z,2.50
2022-11-06T10:07:23.443Z,2.50
2022-11-06T10:09:51.372Z,2.20
2022-11-06T10:12:26.054Z,2.33
2022-11-06T10:15:04.718Z,1.90
2022-11-06T10:17:44.763Z,2.40
2022-11-06T10:20:25.378Z,2.73
2022-11-06T10:23:05.839Z,2.70
2022-11-06T10:25:53.565Z,2.30
2022-11-06T10:28:35.352Z,2.70
2022-11-06T10:31:12.131Z,2.50
2022-11-06T10:33:51.677Z,2.40
2022-11-06T10:36:23.466Z,2.40
2022-11-06T10:38:53.208Z,2.03
2022-11-06T10:41:25.088Z,2.20
2022-11-06T10:43:55.882Z,2.23
2022-11-06T10:46:30.090Z,2.70
2022-11-06T10:49:00.423Z,2.40
2022-11-06T10:51:51.589Z,1.93
2022-11-06T10:54:31.465Z,2.30
2022-11-06T10:57:20.071Z,2.40
2022-11-06T10:59:49.259Z,2.33
2022-11-06T11:02:26.009Z,2.30
2022-11-06T11:04:57.681Z,2.20
2022-11-06T11:07:30.601Z,2.50
2022-11-06T11:09:58.705Z,2.63
2022-11-06T11:12:29.608Z,2.50
2022-11-06T11:15:14.428Z,1.93
2022-11-06T11:17:44.285Z,2.17
2022-11-06T11:20:31.749Z,2.40
2022-11-06T11:23:13.672Z,2.43
2022-11-06T11:25:43.725Z,2.07
2022-11-06T11:28:23.692Z,2.23
2022-11-06T11:30:57.967Z,2.20
2022-11-06T11:33:27.058Z,2.07
2022-11-06T11:35:55.563Z,2.20
2022-11-06T11:38:26.109Z,2.20
2022-11-06T11:41:05.979Z,2.63
2022-11-06T11:43:33.895Z,2.53
2022-11-06T11:46:21.283Z,2.33
2022-11-06T11:48:51.288Z,1.83
2022-11-06T11:51:37.756Z,2.57
2022-11-06T11:54:17.423Z,2.00
2022-11-06T11:57:06.270Z,2.20
2022-11-06T11:59:42.618Z,2.20
2022-11-06T12:02:20.873Z,2.20
2022-11-06T12:04:54.731Z,2.23
2022-11-06T12:07:27.182Z,2.17
2022-11-06T12:09:56.645Z,1.70
2022-11-06T12:12:29.100Z,1.83
2022-11-06T12:15:07.196Z,1.93
2022-11-06T12:17:37.083Z,1.27
2022-11-06T12:20:12.584Z,1.67
2022-11-06T12:22:45.045Z,2.23
2022-11-06T12:25:20.453Z,1.80
2022-11-06T12:27:52.185Z,2.00
2022-11-06T12:30:21.728Z,1.90
2022-11-06T12:32:57.556Z,1.90
2022-11-06T12:35:29.339Z,1.73
2022-11-06T12:38:05.390Z,1.53
2022-11-06T12:40:38.917Z,1.70
2022-11-06T12:43:20.175Z,1.60
2022-11-06T12:46:04.246Z,1.73
2022-11-06T12:48:47.908Z,1.80
2022-11-06T12:51:22.903Z,1.53
2022-11-06T12:54:02.809Z,2.10
2022-11-06T12:56:42.328Z,1.80
2022-11-06T12:59:25.808Z,1.77
2022-11-06T13:02:02.469Z,1.47
2022-11-06T13:04:43.034Z,1.50
2022-11-06T13:07:35.927Z,1.70
2022-11-06T13:10:36.510Z,1.50
2022-11-06T13:13:28.172Z,1.40
2022-11-06T13:16:03.207Z,1.27
2022-11-06T13:18:34.914Z,1.90
2022-11-06T13:21:07.846Z,1.70
2022-11-06T13:23:39.405Z,1.70
2022-11-06T13:26:14.036Z,1.50
2022-11-06T13:28:46.009Z,1.00
2022-11-06T13:31:20.320Z,1.50
2022-11-06T13:33:50.435Z,1.40
2022-11-06T13:36:19.980Z,1.40
2022-11-06T13:38:55.011Z,1.47
2022-11-06T13:41:26.144Z,1.53
2022-11-06T13:44:00.296Z,1.60
2022-11-06T13:46:37.935Z,1.63
2022-11-06T13:49:17.273Z,1.30
2022-11-06T13:51:51.421Z,1.53
2022-11-06T13:54:29.659Z,1.50
2022-11-06T13:57:19.616Z,1.70
2022-11-06T14:00:11.492Z,1.67
2022-11-06T14:03:17.173Z,1.50
2022-11-06T14:05:52.491Z,1.40
2022-11-06T14:08:25.156Z,1.40
2022-11-06T14:10:57.584Z,1.40
2022-11-06T14:13:32.461Z,1.23
2022-11-06T14:16:03.014Z,1.43
2022-11-06T14:18:33.294Z,1.10
2022-11-06T14:21:42.791Z,1.30
2022-11-06T14:24:18.519Z,1.57
2022-11-06T14:26:47.756Z,1.30
2022-11-06T14:29:56.166Z,1.57
2022-11-06T14:32:42.506Z,1.43
2022-11-06T14:35:48.521Z,1.40
2022-11-06T14:38:39.132Z,1.27
2022-11-06T14:41:50.093Z,1.43
2022-11-06T14:44:40.860Z,1.17
2022-11-06T14:47:21.032Z,1.23
2022-11-06T14:49:53.144Z,1.20
2022-11-06T14:52:22.626Z,1.60
2022-11-06T14:55:04.375Z,1.60
2022-11-06T14:57:42.674Z,1.20
2022-11-06T15:00:16.337Z,1.30
2022-11-06T15:02:45.190Z,1.30
2022-11-06T15:05:19.285Z,1.40
2022-11-06T15:08:05.841Z,1.30
2022-11-06T15:10:55.117Z,1.20
2022-11-06T15:13:29.917Z,1.20
2022-11-06T15:16:04.205Z,1.33
2022-11-06T15:18:35.855Z,1.40
2022-11-06T15:21:06.931Z,1.17
2022-11-06T15:23:42.530Z,1.10
2022-11-06T15:26:23.752Z,1.33
2022-11-06T15:29:03.995Z,1.50
2022-11-06T15:31:34.202Z,1.47
2022-11-06T15:34:07.048Z,1.67
2022-11-06T15:36:40.484Z,1.43
2022-11-06T15:39:40.697Z,1.70
2022-11-06T15:42:14.670Z,1.70
2022-11-06T15:44:43.841Z,1.50
2022-11-06T15:47:21.964Z,1.60
2022-11-06T15:49:50.193Z,1.43
2022-11-06T15:52:19.293Z,1.40
2022-11-06T15:54:49.163Z,1.50
2022-11-06T15:57:21.693Z,1.50
2022-11-06T15:59:49.900Z,1.50
2022-11-06T16:02:20.472Z,1.60
2022-11-06T16:04:49.753Z,1.90
2022-11-06T16:07:19.436Z,1.50
2022-11-06T16:09:48.367Z,1.90
2022-11-06T16:12:19.361Z,1.60
2022-11-06T16:14:47.304Z,1.63
2022-11-06T16:17:19.450Z,1.80
2022-11-06T16:19:49.024Z,1.77
2022-11-06T16:22:19.273Z,1.77
2022-11-06T16:24:50.150Z,1.93
2022-11-06T16:27:20.083Z,1.90
2022-11-06T16:29:49.785Z,1.80
2022-11-06T16:32:20.514Z,1.60
2022-11-06T16:34:49.384Z,1.83
2022-11-06T16:37:38.232Z,1.90
2022-11-06T16:40:23.221Z,2.10
2022-11-06T16:43:03.898Z,2.03
2022-11-06T16:45:32.249Z,1.97
2022-11-06T16:48:39.761Z,2.03
2022-11-06T16:51:10.811Z,1.90
2022-11-06T16:54:00.009Z,2.03
2022-11-06T16:56:30.504Z,1.93
2022-11-06T16:59:04.123Z,1.73
2022-11-06T17:01:41.597Z,1.87
2022-11-06T17:04:20.709Z,1.90
2022-11-06T17:06:49.105Z,1.70
2022-11-06T17:09:30.554Z,1.90
2022-11-06T17:12:00.207Z,2.30
2022-11-06T17:14:30.446Z,1.90
2022-11-06T17:17:00.160Z,2.03
2022-11-06T17:19:29.233Z,1.63
2022-11-06T17:21:57.923Z,2.17
2022-11-06T17:24:41.505Z,1.90
2022-11-06T17:27:09.908Z,1.90
2022-11-06T17:29:39.269Z,2.37
2022-11-06T17:32:07.463Z,1.77
2022-11-06T17:34:35.403Z,2.00
2022-11-06T17:37:03.371Z,2.13
2022-11-06T17:39:32.712Z,1.87
2022-11-06T17:42:00.570Z,2.00
2022-11-06T17:44:28.479Z,2.30
2022-11-06T17:46:57.649Z,2.10
2022-11-06T17:49:25.465Z,1.90
2022-11-06T17:52:00.149Z,2.47
2022-11-06T17:54:31.850Z,2.53
2022-11-06T17:57:01.457Z,2.63
2022-11-06T17:59:29.562Z,2.67
2022-11-06T18:01:59.172Z,2.80
2022-11-06T18:04:30.403Z,2.73
2022-11-06T18:06:58.397Z,2.77
2022-11-06T18:09:26.676Z,2.73
2022-11-06T18:11:55.788Z,3.00
2022-11-06T18:14:26.063Z,2.87
2022-11-06T18:16:55.717Z,2.70
2022-11-06T18:19:26.466Z,2.47
2022-11-06T18:21:55.167Z,3.13
2022-11-06T18:24:23.377Z,2.50
2022-11-06T18:26:51.487Z,2.77
2022-11-06T18:29:19.880Z,2.90
2022-11-06T18:31:47.766Z,3.10
2022-11-06T18:34:20.574Z,3.07
2022-11-06T18:36:51.046Z,2.50
2022-11-06T18:39:19.362Z,2.67
2022-11-06T18:41:47.287Z,3.13
2022-11-06T18:44:17.074Z,3.07
2022-11-06T18:46:45.270Z,2.73
2022-11-06T18:49:13.630Z,3.10
2022-11-06T18:51:41.560Z,2.90
2022-11-06T18:54:12.670Z,2.67
2022-11-06T18:56:40.593Z,1.93
2022-11-06T18:59:09.759Z,2.30
2022-11-06T19:01:37.801Z,2.03
2022-11-06T19:04:06.313Z,2.07
2022-11-06T19:06:34.376Z,2.03
2022-11-06T19:09:02.395Z,2.10
2022-11-06T19:11:31.729Z,2.40
2022-11-06T19:13:59.606Z,2.20
2022-11-06T19:16:28.089Z,2.23
2022-11-06T19:21:30.374Z,2.07
2022-11-06T19:24:03.533Z,2.00
2022-11-06T19:26:34.576Z,2.00
2022-11-06T19:29:02.701Z,1.90
2022-11-06T19:31:31.679Z,1.80
2022-11-06T19:34:00.487Z,1.90
2022-11-06T19:36:28.457Z,1.60
2022-11-06T19:38:57.354Z,1.67
2022-11-06T19:41:25.671Z,2.00
2022-11-06T19:43:54.982Z,1.93
2022-11-06T19:46:27.209Z,1.63
2022-11-06T19:48:59.958Z,1.87
2022-11-06T19:51:27.983Z,1.57
2022-11-06T19:53:56.200Z,1.90
2022-11-06T19:56:24.207Z,1.87
2022-11-06T19:58:55.369Z,1.80
2022-11-06T20:01:23.383Z,1.83
2022-11-06T20:03:51.427Z,1.83
2022-11-06T20:06:19.338Z,1.90
2022-11-06T20:08:49.101Z,1.60
2022-11-06T20:11:17.745Z,1.90
2022-11-06T20:13:46.568Z,2.30
2022-11-06T20:16:17.820Z,1.80
2022-11-06T20:18:50.686Z,1.80
2022-11-06T20:21:18.999Z,2.03
2022-11-06T20:23:46.904Z,1.70
2022-11-06T20:26:15.259Z,2.10
2022-11-06T20:28:43.265Z,1.97
2022-11-06T20:31:12.677Z,1.80
2022-11-06T20:33:41.916Z,1.77
2022-11-06T20:36:11.263Z,1.93
2022-11-06T20:38:39.096Z,1.80
2022-11-06T20:41:07.126Z,2.13
2022-11-06T20:43:35.343Z,1.70
2022-11-06T20:46:04.229Z,2.10
2022-11-06T20:48:32.920Z,1.67
2022-11-06T20:51:03.810Z,1.87
2022-11-06T20:53:34.249Z,1.83
2022-11-06T20:56:03.772Z,2.00
2022-11-06T20:58:32.483Z,1.70
2022-11-06T21:01:03.968Z,1.90
2022-11-06T21:03:32.093Z,2.00
2022-11-06T21:06:00.021Z,2.00
2022-11-06T21:08:29.529Z,1.70
2022-11-06T21:11:04.876Z,1.67
2022-11-06T21:13:35.045Z,1.97
2022-11-06T21:16:05.349Z,1.23
2022-11-06T21:18:36.273Z,1.53
2022-11-06T21:21:04.854Z,1.60
2022-11-06T21:23:35.258Z,1.53
2022-11-06T21:26:05.992Z,1.63
2022-11-06T21:28:34.183Z,1.50
2022-11-06T21:31:02.121Z,1.70
2022-11-06T21:33:30.167Z,1.50
2022-11-06T21:36:07.685Z,1.67
2022-11-06T21:38:37.062Z,1.37
2022-11-06T21:41:08.604Z,1.70
2022-11-06T21:43:36.684Z,1.53
2022-11-06T21:46:05.727Z,1.60
2022-11-06T21:48:48.707Z,1.50
2022-11-06T21:51:19.350Z,1.60
2022-11-06T21:54:06.637Z,1.47
2022-11-06T21:56:35.258Z,1.50
2022-11-06T21:59:04.946Z,1.60
2022-11-06T22:01:34.011Z,1.20
2022-11-06T22:04:02.525Z,1.70
2022-11-06T22:06:30.989Z,1.20
2022-11-06T22:09:02.637Z,1.67
2022-11-06T22:11:32.012Z,1.37
2022-11-06T22:14:02.747Z,1.30
2022-11-06T22:16:32.964Z,1.40
2022-11-06T22:19:01.252Z,1.23
2022-11-06T22:21:30.832Z,1.30
2022-11-06T22:24:00.053Z,0.97
2022-11-06T22:26:30.242Z,1.60
2022-11-06T22:28:59.428Z,1.60
2022-11-06T22:31:28.650Z,1.30
2022-11-06T22:33:57.177Z,1.20
2022-11-06T22:36:25.959Z,1.40
2022-11-06T22:38:54.272Z,1.30
2022-11-06T22:41:25.297Z,1.50
2022-11-06T22:43:53.684Z,1.30
2022-11-06T22:46:23.880Z,1.50
2022-11-06T22:48:53.172Z,1.50
2022-11-06T22:51:22.962Z,1.20
2022-11-06T22:53:51.222Z,1.53
2022-11-06T22:56:19.830Z,1.30
2022-11-06T22:58:55.636Z,1.43
2022-11-06T23:01:24.707Z,1.30
2022-11-06T23:03:56.462Z,1.20
2022-11-06T23:06:24.936Z,1.17
2022-11-06T23:08:53.121Z,1.30
2022-11-06T23:11:22.407Z,1.20
2022-11-06T23:13:51.914Z,1.00
2022-11-06T23:16:42.465Z,1.20
2022-11-06T23:19:12.144Z,1.13
2022-11-06T23:21:40.675Z,1.20
2022-11-06T23:24:11.010Z,1.13
2022-11-06T23:26:38.903Z,1.10
2022-11-06T23:29:08.818Z,1.00
2022-11-06T23:31:36.639Z,1.10
2022-11-06T23:34:04.735Z,1.13
2022-11-06T23:36:32.567Z,1.20
2022-11-06T23:39:00.430Z,1.30
2022-11-06T23:41:46.753Z,1.37
2022-11-06T23:44:34.028Z,1.10
2022-11-06T23:47:02.557Z,1.50
2022-11-06T23:49:30.527Z,1.10
2022-11-06T23:51:58.615Z,1.60
2022-11-06T23:54:26.812Z,1.10
2022-11-06T23:56:54.708Z,1.27
2022-11-06T23:59:24.372Z,1.20
